createdAt,value
2022-11-19T00:02:01.768Z,11.45
2022-11-19T00:04:29.803Z,9.63
2022-11-19T00:06:57.838Z,8.95
2022-11-19T00:09:25.637Z,9.38
2022-11-19T00:12:12.276Z,8.43
2022-11-19T00:14:40.635Z,7.70
2022-11-19T00:17:08.672Z,8.93
2022-11-19T00:19:36.471Z,11.40
2022-11-19T00:22:04.320Z,11.98
2022-11-19T00:24:32.417Z,8.32
2022-11-19T00:27:00.433Z,9.32
2022-11-19T00:29:28.089Z,11.65
2022-11-19T00:31:56.060Z,10.20
2022-11-19T00:34:23.913Z,10.00
2022-11-19T00:36:51.826Z,9.23
2022-11-19T00:39:21.434Z,8.38
2022-11-19T00:41:49.767Z,7.03
2022-11-19T00:44:17.801Z,7.97
2022-11-19T00:46:45.497Z,9.27
2022-11-19T00:49:13.392Z,12.75
2022-11-19T00:51:41.287Z,9.50
2022-11-19T00:54:09.177Z,8.27
2022-11-19T00:56:37.055Z,10.30
2022-11-19T00:59:05.019Z,9.52
2022-11-19T01:01:33.106Z,9.05
2022-11-19T01:04:02.200Z,8.90
2022-11-19T01:06:30.095Z,9.05
2022-11-19T01:08:58.364Z,10.60
2022-11-19T01:11:31.492Z,8.60
2022-11-19T01:14:00.210Z,9.20
2022-11-19T01:16:36.449Z,8.32
2022-11-19T01:19:06.271Z,9.57
2022-11-19T01:21:35.325Z,10.50
2022-11-19T01:24:04.020Z,9.40
2022-11-19T01:26:32.176Z,10.57
2022-11-19T01:28:59.960Z,8.10
2022-11-19T01:31:29.561Z,8.88
2022-11-19T01:33:58.655Z,8.77
2022-11-19T01:36:29.998Z,8.85
2022-11-19T01:38:58.160Z,9.70
2022-11-19T01:41:31.572Z,7.78
2022-11-19T01:44:05.118Z,7.38
2022-11-19T01:46:35.694Z,8.73
2022-11-19T01:49:18.783Z,7.55
2022-11-19T01:52:03.837Z,7.20
2022-11-19T01:54:45.038Z,9.50
2022-11-19T01:57:15.660Z,7.15
2022-11-19T01:59:44.960Z,9.07
2022-11-19T02:02:13.090Z,7.95
2022-11-19T02:04:41.192Z,8.35
2022-11-19T02:07:11.004Z,10.27
2022-11-19T02:09:39.375Z,7.45
2022-11-19T02:12:31.840Z,9.00
2022-11-19T02:15:21.467Z,8.32
2022-11-19T02:18:19.268Z,8.40
2022-11-19T02:21:15.937Z,8.13
2022-11-19T02:23:46.372Z,8.65
2022-11-19T02:26:42.604Z,6.65
2022-11-19T02:29:49.073Z,6.05
2022-11-19T02:32:23.343Z,7.57
2022-11-19T02:35:14.949Z,5.90
2022-11-19T02:38:02.751Z,6.35
2022-11-19T02:40:43.593Z,6.78
2022-11-19T02:43:18.412Z,8.80
2022-11-19T02:45:52.265Z,8.32
2022-11-19T02:48:44.140Z,7.18
2022-11-19T02:51:12.880Z,7.40
2022-11-19T02:53:40.492Z,7.85
2022-11-19T02:56:45.963Z,7.15
2022-11-19T02:59:33.606Z,6.65
2022-11-19T03:02:21.374Z,6.35
2022-11-19T03:04:53.137Z,7.85
2022-11-19T03:09:55.485Z,7.43
2022-11-19T03:12:41.677Z,7.13
2022-11-19T03:15:38.394Z,6.35
2022-11-19T03:18:26.570Z,8.05
2022-11-19T03:21:01.341Z,7.45
2022-11-19T03:23:54.748Z,6.87
2022-11-19T03:26:33.569Z,7.47
2022-11-19T03:29:04.034Z,8.57
2022-11-19T03:31:32.975Z,5.97
2022-11-19T03:34:03.835Z,5.83
2022-11-19T03:36:39.433Z,6.88
2022-11-19T03:39:11.028Z,6.47
2022-11-19T03:41:42.082Z,6.78
2022-11-19T03:44:30.103Z,5.75
2022-11-19T03:47:05.724Z,7.15
2022-11-19T03:49:37.672Z,7.55
2022-11-19T03:54:35.459Z,6.80
2022-11-19T03:57:04.561Z,7.60
2022-11-19T03:59:32.505Z,7.57
2022-11-19T04:02:04.138Z,6.80
2022-11-19T04:04:37.748Z,7.93
2022-11-19T04:07:11.043Z,7.88
2022-11-19T04:09:40.659Z,8.10
2022-11-19T04:12:14.368Z,8.45
2022-11-19T04:14:42.200Z,8.07
2022-11-19T04:17:10.068Z,5.57
2022-11-19T04:19:37.873Z,6.95
2022-11-19T04:22:05.749Z,6.55
2022-11-19T04:24:33.507Z,7.43
2022-11-19T04:27:01.536Z,6.55
2022-11-19T04:29:30.549Z,6.83
2022-11-19T04:31:59.651Z,6.75
2022-11-19T04:34:27.318Z,7.10
2022-11-19T04:36:55.226Z,7.78
2022-11-19T04:39:23.436Z,5.70
2022-11-19T04:41:51.393Z,7.53
2022-11-19T04:44:19.371Z,7.07
2022-11-19T04:46:47.368Z,8.00
2022-11-19T04:49:15.443Z,10.38
2022-11-19T04:51:43.354Z,11.23
2022-11-19T04:54:11.599Z,11.18
2022-11-19T04:56:39.514Z,10.10
2022-11-19T04:59:07.545Z,8.25
2022-11-19T05:01:35.561Z,10.32
2022-11-19T05:04:03.533Z,8.02
2022-11-19T05:06:31.391Z,8.30
2022-11-19T05:08:59.421Z,6.13
2022-11-19T05:11:27.394Z,8.77
2022-11-19T05:13:58.140Z,7.30
2022-11-19T05:16:25.940Z,7.20
2022-11-19T05:18:53.956Z,7.03
2022-11-19T05:21:21.854Z,7.87
2022-11-19T05:23:49.826Z,6.93
2022-11-19T05:26:17.700Z,5.68
2022-11-19T05:28:46.258Z,7.50
2022-11-19T05:31:13.990Z,6.32
2022-11-19T05:33:41.743Z,7.50
2022-11-19T05:36:09.909Z,7.60
2022-11-19T05:38:37.812Z,8.30
2022-11-19T05:41:05.791Z,6.95
2022-11-19T05:43:33.630Z,8.00
2022-11-19T05:46:02.679Z,8.75
2022-11-19T05:48:31.286Z,7.97
2022-11-19T05:50:59.139Z,7.40
2022-11-19T05:53:27.605Z,6.97
2022-11-19T05:55:55.455Z,7.85
2022-11-19T05:58:23.265Z,8.27
2022-11-19T06:00:56.292Z,10.37
2022-11-19T06:03:24.308Z,7.73
2022-11-19T06:05:52.318Z,6.57
2022-11-19T06:08:20.274Z,6.77
2022-11-19T06:10:48.115Z,9.13
2022-11-19T06:13:19.122Z,6.30
2022-11-19T06:15:47.218Z,8.45
2022-11-19T06:18:15.154Z,8.32
2022-11-19T06:20:43.272Z,8.38
2022-11-19T06:23:11.160Z,6.85
2022-11-19T06:25:39.226Z,7.25
2022-11-19T06:28:07.813Z,6.97
2022-11-19T06:30:35.907Z,8.32
2022-11-19T06:33:03.781Z,9.05
2022-11-19T06:35:31.558Z,9.07
2022-11-19T06:37:59.573Z,10.68
2022-11-19T06:40:27.530Z,9.35
2022-11-19T06:42:55.496Z,6.45
2022-11-19T06:45:23.394Z,8.33
2022-11-19T06:47:51.442Z,7.72
2022-11-19T06:50:19.277Z,10.05
2022-11-19T06:52:47.233Z,6.10
2022-11-19T06:55:15.365Z,6.90
2022-11-19T06:57:43.333Z,6.90
2022-11-19T07:00:12.378Z,6.88
2022-11-19T07:02:41.145Z,7.60
2022-11-19T07:05:09.162Z,7.43
2022-11-19T07:07:37.008Z,5.90
2022-11-19T07:10:05.278Z,10.10
2022-11-19T07:12:33.302Z,6.90
2022-11-19T07:15:04.241Z,7.65
2022-11-19T07:17:33.048Z,7.90
2022-11-19T07:20:01.006Z,8.93
2022-11-19T07:22:29.170Z,6.93
2022-11-19T07:24:57.391Z,9.30
2022-11-19T07:27:25.194Z,6.43
2022-11-19T07:29:53.260Z,8.07
2022-11-19T07:32:21.378Z,6.70
2022-11-19T07:34:49.292Z,7.93
2022-11-19T07:37:16.994Z,9.70
2022-11-19T07:39:47.209Z,9.93
2022-11-19T07:42:33.645Z,7.85
2022-11-19T07:45:09.840Z,8.00
2022-11-19T07:47:37.774Z,9.73
2022-11-19T07:50:06.113Z,6.78
2022-11-19T07:52:34.079Z,9.32
2022-11-19T07:55:02.021Z,9.25
2022-11-19T07:57:30.489Z,10.35
2022-11-19T07:59:58.629Z,10.93
2022-11-19T08:02:26.597Z,9.63
2022-11-19T08:04:54.699Z,10.63
2022-11-19T08:07:22.871Z,10.05
2022-11-19T08:09:51.247Z,9.63
2022-11-19T08:12:22.517Z,13.65
2022-11-19T08:14:50.443Z,11.32
2022-11-19T08:17:36.618Z,9.40
2022-11-19T08:20:04.783Z,10.23
2022-11-19T08:22:32.868Z,12.52
2022-11-19T08:25:00.863Z,13.18
2022-11-19T08:27:28.775Z,11.43
2022-11-19T08:29:56.569Z,10.88
2022-11-19T08:32:24.656Z,10.70
2022-11-19T08:34:52.727Z,12.10
2022-11-19T08:37:20.621Z,11.63
2022-11-19T08:39:48.658Z,12.23
2022-11-19T08:42:35.313Z,11.52
2022-11-19T08:45:03.254Z,11.68
2022-11-19T08:47:31.221Z,16.27
2022-11-19T08:49:59.016Z,12.75
2022-11-19T08:52:26.805Z,10.15
2022-11-19T08:54:54.889Z,10.25
2022-11-19T08:57:23.049Z,9.75
2022-11-19T08:59:52.358Z,10.77
2022-11-19T09:02:20.282Z,9.05
2022-11-19T09:04:48.322Z,10.73
2022-11-19T09:07:16.325Z,10.73
2022-11-19T09:09:44.340Z,9.73
2022-11-19T09:12:12.390Z,8.73
2022-11-19T09:14:41.264Z,11.70
2022-11-19T09:17:09.044Z,12.18
2022-11-19T09:19:36.727Z,11.85
2022-11-19T09:22:04.610Z,9.63
2022-11-19T09:24:32.438Z,11.27
2022-11-19T09:27:02.513Z,9.85
2022-11-19T09:29:30.560Z,8.27
2022-11-19T09:31:59.012Z,11.88
2022-11-19T09:34:26.681Z,7.43
2022-11-19T09:36:54.576Z,10.65
2022-11-19T09:39:22.345Z,9.93
2022-11-19T09:42:02.649Z,5.65
2022-11-19T09:44:44.960Z,6.47
2022-11-19T09:47:18.790Z,10.73
2022-11-19T09:49:52.014Z,8.13
2022-11-19T09:52:21.891Z,9.77
2022-11-19T09:54:52.624Z,7.32
2022-11-19T09:58:05.318Z,6.25
2022-11-19T10:00:33.974Z,5.88
2022-11-19T10:03:08.530Z,5.95
2022-11-19T10:05:51.823Z,6.78
2022-11-19T10:08:47.399Z,9.02
2022-11-19T10:11:45.672Z,7.05
2022-11-19T10:14:36.267Z,7.38
2022-11-19T10:17:16.278Z,6.15
2022-11-19T10:20:09.003Z,5.75
2022-11-19T10:22:41.321Z,7.35
2022-11-19T10:25:21.955Z,9.10
2022-11-19T10:28:21.014Z,6.55
2022-11-19T10:30:55.500Z,4.45
2022-11-19T10:33:35.142Z,6.78
2022-11-19T10:36:08.554Z,6.43
2022-11-19T10:38:39.249Z,6.47
2022-11-19T10:41:11.807Z,5.28
2022-11-19T10:43:50.934Z,5.45
2022-11-19T10:46:22.602Z,8.13
2022-11-19T10:48:56.978Z,5.47
2022-11-19T10:51:24.803Z,5.65
2022-11-19T10:53:53.707Z,21.65
2022-11-19T10:56:43.211Z,5.15
2022-11-19T10:59:18.099Z,5.47
2022-11-19T11:01:49.398Z,5.15
2022-11-19T11:04:23.909Z,6.25
2022-11-19T11:06:57.831Z,10.55
2022-11-19T11:09:41.953Z,5.85
2022-11-19T11:12:37.450Z,3.95
2022-11-19T11:15:23.084Z,5.30
2022-11-19T11:18:05.073Z,6.03
2022-11-19T11:20:33.807Z,5.75
2022-11-19T11:23:15.294Z,5.25
2022-11-19T11:25:53.209Z,4.25
2022-11-19T11:28:22.675Z,3.78
2022-11-19T11:31:01.894Z,4.25
2022-11-19T11:33:42.094Z,4.72
2022-11-19T11:36:16.293Z,4.80
2022-11-19T11:38:49.830Z,3.83
2022-11-19T11:44:15.654Z,5.97
2022-11-19T11:46:48.063Z,4.32
2022-11-19T11:49:41.980Z,4.10
2022-11-19T11:52:09.899Z,3.95
2022-11-19T11:54:39.812Z,4.85
2022-11-19T11:57:21.935Z,5.97
2022-11-19T11:59:50.015Z,3.83
2022-11-19T12:02:22.879Z,4.25
2022-11-19T12:04:52.502Z,3.50
2022-11-19T12:07:39.449Z,3.38
2022-11-19T12:10:30.605Z,4.22
2022-11-19T12:13:04.167Z,4.30
2022-11-19T12:15:56.352Z,4.05
2022-11-19T12:18:39.173Z,4.20
2022-11-19T12:21:12.185Z,5.78
2022-11-19T12:23:49.048Z,3.85
2022-11-19T12:26:47.747Z,3.50
2022-11-19T12:29:33.979Z,4.22
2022-11-19T12:32:22.807Z,3.15
2022-11-19T12:35:04.857Z,3.83
2022-11-19T12:37:50.665Z,3.67
2022-11-19T12:40:30.018Z,3.63
2022-11-19T12:43:35.409Z,3.58
2022-11-19T12:46:20.543Z,3.22
2022-11-19T12:49:00.730Z,3.65
2022-11-19T12:51:44.556Z,4.22
2022-11-19T12:54:34.532Z,3.80
2022-11-19T12:57:20.836Z,3.45
2022-11-19T12:59:54.708Z,2.53
2022-11-19T13:02:30.457Z,2.83
2022-11-19T13:05:33.651Z,3.15
2022-11-19T13:08:27.810Z,2.88
2022-11-19T13:11:06.063Z,3.13
2022-11-19T13:13:37.811Z,2.78
2022-11-19T13:16:12.635Z,2.80
2022-11-19T13:18:43.655Z,2.85
2022-11-19T13:21:23.584Z,2.03
2022-11-19T13:23:52.195Z,2.97
2022-11-19T13:26:32.350Z,1.85
2022-11-19T13:29:23.448Z,1.75
2022-11-19T13:31:57.789Z,2.35
2022-11-19T13:34:33.213Z,2.45
2022-11-19T13:37:06.930Z,4.50
2022-11-19T13:39:47.219Z,3.45
2022-11-19T13:42:35.238Z,4.00
2022-11-19T13:45:03.082Z,6.43
2022-11-19T13:47:47.522Z,2.92
2022-11-19T13:50:34.864Z,2.45
2022-11-19T13:53:41.232Z,2.40
2022-11-19T13:56:14.231Z,3.72
2022-11-19T13:58:47.675Z,2.85
2022-11-19T14:01:34.263Z,2.17
2022-11-19T14:04:11.603Z,3.67
2022-11-19T14:06:48.483Z,2.45
2022-11-19T14:09:44.214Z,2.92
2022-11-19T14:12:33.915Z,2.80
2022-11-19T14:15:53.054Z,1.98
2022-11-19T14:18:49.001Z,2.22
2022-11-19T14:21:44.128Z,3.63
2022-11-19T14:24:45.382Z,4.57
2022-11-19T14:27:29.808Z,3.80
2022-11-19T14:30:03.707Z,3.75
2022-11-19T14:32:34.867Z,3.00
2022-11-19T14:35:03.260Z,4.25
2022-11-19T14:37:43.454Z,5.78
2022-11-19T14:40:21.645Z,5.20
2022-11-19T14:43:20.332Z,3.58
2022-11-19T14:46:03.565Z,2.60
2022-11-19T14:48:39.368Z,3.33
2022-11-19T14:51:17.247Z,4.82
2022-11-19T14:54:13.858Z,2.38
2022-11-19T14:56:42.808Z,3.47
2022-11-19T14:59:11.183Z,4.03
2022-11-19T15:02:00.700Z,5.38
2022-11-19T15:04:59.575Z,2.72
2022-11-19T15:07:39.657Z,7.10
2022-11-19T15:10:27.168Z,3.28
2022-11-19T15:13:18.964Z,4.53
2022-11-19T15:18:21.592Z,8.23
2022-11-19T15:21:05.443Z,4.57
2022-11-19T15:23:57.220Z,6.80
2022-11-19T15:26:55.740Z,11.25
2022-11-19T15:29:41.653Z,5.45
2022-11-19T15:32:30.875Z,3.65
2022-11-19T15:35:10.731Z,3.85
2022-11-19T15:37:51.561Z,4.05
2022-11-19T15:40:29.347Z,3.83
2022-11-19T15:43:42.088Z,6.18
2022-11-19T15:46:16.372Z,9.38
2022-11-19T15:49:15.962Z,5.57
2022-11-19T15:52:16.305Z,11.52
2022-11-19T15:54:45.707Z,11.85
2022-11-19T15:57:24.068Z,4.10
2022-11-19T16:00:01.826Z,3.80
2022-11-19T16:02:44.120Z,5.07
2022-11-19T16:05:26.039Z,4.07
2022-11-19T16:07:54.685Z,6.18
2022-11-19T16:11:08.340Z,5.32
2022-11-19T16:13:54.910Z,4.43
2022-11-19T16:16:47.148Z,4.03
2022-11-19T16:19:16.567Z,5.13
2022-11-19T16:21:47.265Z,3.50
2022-11-19T16:24:35.602Z,4.53
2022-11-19T16:27:04.695Z,4.80
2022-11-19T16:29:36.491Z,5.65
2022-11-19T16:32:05.802Z,5.85
2022-11-19T16:34:35.514Z,7.88
2022-11-19T16:37:03.665Z,8.27
2022-11-19T16:39:33.027Z,5.60
2022-11-19T16:42:17.359Z,5.63
2022-11-19T16:44:54.877Z,6.25
2022-11-19T16:47:27.494Z,7.18
2022-11-19T16:50:02.047Z,6.07
2022-11-19T16:52:36.827Z,5.50
2022-11-19T16:55:24.900Z,4.40
2022-11-19T16:58:01.010Z,4.32
2022-11-19T17:00:33.948Z,6.55
2022-11-19T17:03:03.763Z,4.78
2022-11-19T17:05:31.587Z,5.53
2022-11-19T17:08:30.784Z,7.10
2022-11-19T17:11:37.888Z,5.57
2022-11-19T17:14:20.671Z,5.82
2022-11-19T17:16:51.571Z,5.07
2022-11-19T17:19:26.868Z,4.97
2022-11-19T17:22:21.980Z,5.68
2022-11-19T17:24:50.590Z,4.30
2022-11-19T17:27:34.703Z,4.15
2022-11-19T17:30:28.387Z,6.20
2022-11-19T17:33:01.246Z,5.75
2022-11-19T17:35:42.005Z,5.90
2022-11-19T17:38:19.719Z,6.03
2022-11-19T17:40:50.142Z,4.50
2022-11-19T17:43:42.075Z,4.40
2022-11-19T17:46:10.488Z,5.85
2022-11-19T17:48:41.880Z,7.35
2022-11-19T17:51:14.285Z,8.40
2022-11-19T17:53:42.201Z,8.18
2022-11-19T17:56:29.991Z,8.25
2022-11-19T17:58:59.857Z,6.53
2022-11-19T18:01:28.180Z,7.10
2022-11-19T18:03:56.315Z,8.48
2022-11-19T18:06:24.345Z,6.05
2022-11-19T18:08:52.454Z,7.75
2022-11-19T18:11:23.159Z,5.80
2022-11-19T18:13:52.608Z,6.65
2022-11-19T18:16:23.955Z,6.72
2022-11-19T18:18:52.477Z,6.65
2022-11-19T18:21:21.961Z,6.75
2022-11-19T18:23:51.390Z,8.82
2022-11-19T18:26:22.564Z,6.10
2022-11-19T18:28:50.693Z,8.75
2022-11-19T18:31:22.737Z,9.25
2022-11-19T18:33:51.517Z,7.85
2022-11-19T18:36:19.729Z,7.80
2022-11-19T18:38:48.221Z,5.88
2022-11-19T18:41:19.123Z,6.25
2022-11-19T18:44:05.861Z,7.87
2022-11-19T18:46:33.896Z,12.02
2022-11-19T18:49:01.711Z,7.80
2022-11-19T18:51:31.849Z,7.45
2022-11-19T18:54:00.279Z,9.88
2022-11-19T18:56:28.129Z,6.80
2022-11-19T18:59:00.316Z,8.25
2022-11-19T19:01:31.516Z,7.68
2022-11-19T19:04:00.110Z,8.43
2022-11-19T19:06:29.993Z,8.23
2022-11-19T19:08:57.755Z,7.65
2022-11-19T19:11:43.991Z,8.70
2022-11-19T19:14:11.850Z,9.00
2022-11-19T19:16:39.789Z,10.02
2022-11-19T19:19:07.706Z,8.50
2022-11-19T19:21:35.484Z,7.60
2022-11-19T19:24:05.514Z,8.65
2022-11-19T19:26:33.602Z,9.70
2022-11-19T19:29:01.612Z,9.00
2022-11-19T19:31:29.780Z,9.15
2022-11-19T19:33:57.746Z,6.93
2022-11-19T19:36:25.786Z,11.48
2022-11-19T19:38:53.946Z,8.80
2022-11-19T19:41:24.116Z,9.32
2022-11-19T19:43:53.136Z,8.77
2022-11-19T19:46:23.627Z,7.78
2022-11-19T19:48:53.080Z,8.80
2022-11-19T19:51:22.653Z,10.15
2022-11-19T19:53:52.364Z,8.77
2022-11-19T19:56:28.993Z,7.15
2022-11-19T19:58:57.764Z,10.93
2022-11-19T20:01:33.500Z,9.20
2022-11-19T20:04:03.542Z,8.57
2022-11-19T20:06:32.166Z,9.45
2022-11-19T20:09:03.205Z,10.10
2022-11-19T20:11:35.046Z,9.38
2022-11-19T20:14:02.978Z,11.68
2022-11-19T20:16:32.451Z,8.35
2022-11-19T20:19:01.187Z,8.45
2022-11-19T20:21:36.512Z,10.43
2022-11-19T20:24:11.798Z,11.13
2022-11-19T20:26:41.092Z,11.23
2022-11-19T20:29:12.562Z,12.05
2022-11-19T20:31:41.181Z,10.88
2022-11-19T20:34:09.848Z,10.98
2022-11-19T20:36:37.686Z,12.07
2022-11-19T20:39:06.811Z,12.20
2022-11-19T20:41:53.092Z,11.20
2022-11-19T20:44:21.522Z,10.40
2022-11-19T20:46:57.466Z,11.77
2022-11-19T20:49:27.941Z,11.85
2022-11-19T20:51:56.428Z,11.32
2022-11-19T20:54:25.027Z,10.98
2022-11-19T20:56:54.402Z,9.75
2022-11-19T20:59:23.094Z,10.90
2022-11-19T21:01:51.595Z,9.68
2022-11-19T21:04:23.876Z,7.82
2022-11-19T21:06:51.770Z,9.98
2022-11-19T21:09:20.310Z,10.57
2022-11-19T21:11:48.777Z,6.65
2022-11-19T21:14:16.694Z,7.95
2022-11-19T21:16:44.724Z,8.52
2022-11-19T21:19:13.593Z,8.73
2022-11-19T21:21:41.704Z,8.73
2022-11-19T21:24:09.745Z,7.65
2022-11-19T21:26:37.564Z,14.02
2022-11-19T21:29:05.458Z,10.88
2022-11-19T21:31:49.880Z,8.85
2022-11-19T21:34:20.786Z,10.38
2022-11-19T21:36:49.091Z,9.60
2022-11-19T21:39:18.062Z,8.23
2022-11-19T21:41:46.042Z,9.95
2022-11-19T21:44:18.315Z,7.82
2022-11-19T21:46:50.757Z,8.93
2022-11-19T21:49:19.023Z,8.38
2022-11-19T21:51:47.379Z,8.40
2022-11-19T21:54:15.224Z,9.15
2022-11-19T21:56:43.153Z,7.85
2022-11-19T21:59:14.021Z,8.05
2022-11-19T22:01:41.814Z,8.13
2022-11-19T22:04:15.644Z,6.47
2022-11-19T22:06:46.187Z,7.70
2022-11-19T22:09:14.034Z,8.07
2022-11-19T22:11:41.884Z,10.60
2022-11-19T22:14:10.903Z,9.43
2022-11-19T22:16:40.406Z,10.02
2022-11-19T22:19:08.218Z,6.95
2022-11-19T22:21:36.377Z,7.75
2022-11-19T22:24:04.725Z,8.57
2022-11-19T22:26:32.856Z,8.27
2022-11-19T22:29:00.657Z,6.47
2022-11-19T22:31:28.621Z,6.40
2022-11-19T22:33:56.520Z,6.53
2022-11-19T22:36:24.952Z,7.15
2022-11-19T22:38:52.834Z,6.55
2022-11-19T22:41:22.207Z,7.43
2022-11-19T22:43:50.092Z,6.13
2022-11-19T22:46:19.216Z,8.30
2022-11-19T22:48:47.171Z,7.95
2022-11-19T22:51:18.721Z,7.68
2022-11-19T22:53:47.147Z,6.45
2022-11-19T22:56:17.745Z,7.50
2022-11-19T22:58:46.102Z,9.93
2022-11-19T23:01:20.008Z,5.63
2022-11-19T23:03:48.250Z,8.20
2022-11-19T23:06:16.570Z,8.40
2022-11-19T23:08:45.130Z,6.22
2022-11-19T23:11:14.840Z,6.55
2022-11-19T23:13:44.214Z,6.15
2022-11-19T23:16:15.750Z,6.57
2022-11-19T23:18:51.695Z,4.93
2022-11-19T23:21:24.507Z,6.38
2022-11-19T23:23:52.696Z,6.50
2022-11-19T23:26:22.806Z,7.35
2022-11-19T23:28:51.445Z,6.95
2022-11-19T23:31:24.742Z,7.97
2022-11-19T23:33:58.578Z,6.95
2022-11-19T23:36:29.805Z,7.50
2022-11-19T23:38:59.188Z,7.97
2022-11-19T23:41:27.716Z,7.63
2022-11-19T23:43:56.421Z,8.55
2022-11-19T23:46:29.696Z,12.32
2022-11-19T23:48:58.644Z,8.00
2022-11-19T23:51:29.532Z,5.97
2022-11-19T23:53:57.811Z,8.13
2022-11-19T23:56:27.300Z,5.85
2022-11-19T23:58:55.303Z,7.95
